Time;durP1;ratioP1;P1;durP2;ratioP2;P2;SDS_P1;SDS_P2;PMS_P1;PMS_P2;Temp;Humidity;BMP_temperature;BMP_pressure;BME280_temperature;BME280_humidity;BME280_pressure;Samples;Min_cycle;Max_cycle;Signal;HPM_P1;HPM_P2
2023/12/11 00:02:08;;;;;;;0.80;0.50;;;10.50;99.90;;;10.77;98.71;99460.97;4860305;28;24502;-62
2023/12/11 00:04:30;;;;;;;0.90;0.60;;;10.50;99.90;;;10.73;99.34;99447.38;4878535;28;24551;-64
2023/12/11 00:06:52;;;;;;;0.75;0.65;;;10.50;99.90;;;10.78;98.93;99454.78;4879050;28;24445;-63
2023/12/11 00:09:14;;;;;;;1.70;0.80;;;10.50;99.90;;;10.79;99.03;99457.28;4876111;28;24512;-64
2023/12/11 00:11:37;;;;;;;0.70;0.70;;;10.50;99.90;;;10.74;99.42;99453.41;4878405;28;24434;-64
2023/12/11 00:13:59;;;;;;;2.42;0.80;;;10.50;99.90;;;10.82;99.01;99451.75;4875633;28;25057;-63
2023/12/11 00:16:21;;;;;;;1.50;0.70;;;10.50;99.90;;;10.83;99.14;99458.63;4878883;28;24435;-65
2023/12/11 00:18:43;;;;;;;1.45;0.63;;;10.50;99.90;;;10.82;98.42;99462.19;4879073;28;24552;-65
2023/12/11 00:21:06;;;;;;;1.10;0.50;;;10.60;99.90;;;10.85;98.71;99453.25;4879224;28;24424;-65
2023/12/11 00:23:28;;;;;;;0.60;0.60;;;10.60;99.90;;;10.87;98.53;99461.78;4870192;28;25018;-65
2023/12/11 00:25:50;;;;;;;0.70;0.70;;;10.60;99.90;;;10.90;98.32;99472.75;4879183;28;25008;-65
2023/12/11 00:28:12;;;;;;;0.70;0.70;;;10.60;99.90;;;10.89;98.17;99486.78;4872167;28;24433;-65
2023/12/11 00:30:34;;;;;;;0.70;0.70;;;10.60;99.90;;;10.90;97.49;99488.41;4877197;28;24856;-65
2023/12/11 00:32:56;;;;;;;0.75;0.75;;;10.60;99.90;;;10.89;98.02;99489.38;4881129;28;24447;-63
2023/12/11 00:35:18;;;;;;;0.80;0.80;;;10.60;99.90;;;10.91;97.86;99492.66;4882281;28;24560;-65
2023/12/11 00:37:40;;;;;;;1.55;0.80;;;10.60;99.90;;;10.89;97.27;99492.00;4884312;28;24543;-66
2023/12/11 00:40:03;;;;;;;2.70;0.80;;;10.60;99.90;;;10.88;97.35;99492.13;4880399;28;24460;-65
2023/12/11 00:42:25;;;;;;;1.50;0.80;;;10.60;99.90;;;10.86;97.33;99494.06;4872864;28;24449;-65
2023/12/11 00:44:47;;;;;;;1.30;0.70;;;10.50;99.90;;;10.87;97.80;99495.69;4873464;28;25391;-65
2023/12/11 00:47:10;;;;;;;0.93;0.70;;;10.50;99.90;;;10.86;96.91;99479.22;4876898;28;24435;-65
2023/12/11 00:49:32;;;;;;;1.70;0.70;;;10.50;99.90;;;10.82;97.35;99488.28;4877208;28;24477;-65
2023/12/11 00:51:54;;;;;;;1.77;0.70;;;10.60;99.90;;;10.90;96.88;99477.97;4873403;28;24525;-66
2023/12/11 00:54:16;;;;;;;0.90;0.77;;;10.70;99.90;;;10.95;97.07;99503.66;4866910;28;24589;-66
2023/12/11 00:56:38;;;;;;;1.63;0.80;;;10.60;99.90;;;10.96;96.71;99488.81;4871998;28;24529;-66
2023/12/11 00:59:00;;;;;;;0.70;0.70;;;10.70;99.90;;;10.98;95.55;99487.72;4855528;28;24535;-64
2023/12/11 01:01:22;;;;;;;1.02;0.70;;;10.70;99.90;;;10.98;96.71;99486.88;4872806;28;24526;-64
2023/12/11 01:03:44;;;;;;;1.20;0.73;;;10.70;99.90;;;10.96;95.73;99486.22;4873289;28;24471;-65
2023/12/11 01:06:07;;;;;;;0.98;0.80;;;10.70;99.90;;;10.93;97.11;99489.91;4871232;28;25050;-65
2023/12/11 01:08:30;;;;;;;1.50;0.60;;;10.70;99.90;;;10.90;96.60;99498.84;4883056;28;24923;-65
2023/12/11 01:10:52;;;;;;;0.70;0.60;;;10.60;99.90;;;10.88;97.22;99500.75;4845204;28;24439;-65
2023/12/11 01:13:13;;;;;;;0.90;0.70;;;10.60;99.90;;;10.87;96.64;99503.53;4868449;28;25051;-64
2023/12/11 01:15:35;;;;;;;1.70;0.90;;;10.60;99.90;;;10.86;96.37;99494.88;4870782;28;24515;-64
2023/12/11 01:17:57;;;;;;;0.80;0.70;;;10.60;99.90;;;10.87;96.67;99506.97;4881187;28;24434;-65
2023/12/11 01:20:19;;;;;;;0.70;0.70;;;10.60;99.90;;;10.90;96.39;99501.44;4874523;28;24466;-63
2023/12/11 01:22:41;;;;;;;0.80;0.80;;;10.60;99.90;;;10.90;96.49;99496.22;4863737;28;24789;-63
2023/12/11 01:25:04;;;;;;;0.70;0.70;;;10.60;99.90;;;10.87;96.77;99501.75;4870803;28;24530;-65
2023/12/11 01:27:26;;;;;;;0.80;0.77;;;10.50;99.90;;;10.86;97.49;99501.91;4875601;28;24423;-66
2023/12/11 01:29:48;;;;;;;0.63;0.63;;;10.60;99.90;;;10.80;97.65;99499.81;4876927;28;25001;-64
2023/12/11 01:32:10;;;;;;;0.60;0.60;;;10.50;99.90;;;10.85;96.13;99492.41;4880963;28;24430;-65
2023/12/11 01:34:32;;;;;;;0.60;0.60;;;10.50;99.90;;;10.85;97.41;99501.06;4872385;28;24443;-66
2023/12/11 01:36:54;;;;;;;0.52;0.52;;;10.60;99.90;;;10.87;96.56;99495.69;4881499;28;24438;-64
2023/12/11 01:39:16;;;;;;;0.70;0.70;;;10.60;99.90;;;10.87;96.40;99498.31;4870927;28;24578;-63
2023/12/11 01:41:38;;;;;;;0.60;0.60;;;10.60;99.90;;;10.89;96.36;99499.81;4878007;28;24423;-65
2023/12/11 01:43:59;;;;;;;0.88;0.77;;;10.60;99.90;;;10.89;96.51;99493.78;4868319;28;24447;-65
2023/12/11 01:46:24;;;;;;;1.40;0.70;;;10.60;99.90;;;10.84;96.67;99491.56;4875568;28;24439;-65
2023/12/11 01:48:49;;;;;;;0.90;0.60;;;10.60;99.90;;;10.80;96.76;99490.22;4869366;28;25020;-66
2023/12/11 01:51:13;;;;;;;0.75;0.65;;;10.50;99.90;;;10.83;96.81;99484.72;4875821;28;24471;-65
2023/12/11 01:53:35;;;;;;;0.60;0.60;;;10.60;99.90;;;10.82;97.46;99474.41;4854917;28;24501;-66
2023/12/11 01:55:58;;;;;;;1.60;0.60;;;10.50;99.90;;;10.82;96.95;99467.41;4873485;28;24436;-64
2023/12/11 01:58:21;;;;;;;0.60;0.60;;;10.60;99.90;;;10.91;96.44;99469.19;4869263;28;24894;-65
2023/12/11 02:00:43;;;;;;;1.00;0.90;;;10.60;99.90;;;10.91;96.15;99481.41;4876212;28;24469;-65
2023/12/11 02:03:05;;;;;;;1.30;0.70;;;10.60;99.90;;;10.88;97.08;99472.06;4877398;28;24431;-67
2023/12/11 02:05:27;;;;;;;2.60;0.80;;;10.60;99.90;;;10.84;96.08;99467.25;4873598;28;25218;-65
2023/12/11 02:07:50;;;;;;;0.95;0.60;;;10.60;99.90;;;10.84;96.35;99460.25;4886285;28;24915;-66
2023/12/11 02:10:12;;;;;;;0.90;0.70;;;10.60;99.90;;;10.84;96.19;99465.47;4878289;28;24972;-64
2023/12/11 02:12:34;;;;;;;1.23;0.60;;;10.60;99.90;;;10.80;96.34;99456.28;4869220;28;24427;-65
2023/12/11 02:14:56;;;;;;;0.80;0.70;;;10.50;99.90;;;10.81;96.96;99451.91;4864870;28;24452;-65
2023/12/11 02:17:18;;;;;;;1.87;0.70;;;10.50;99.90;;;10.83;97.34;99456.03;4886616;28;24419;-65
2023/12/11 02:19:40;;;;;;;1.20;0.80;;;10.60;99.90;;;10.83;96.11;99457.81;4878177;28;24515;-66
2023/12/11 02:22:02;;;;;;;0.80;0.80;;;10.60;99.90;;;10.80;96.83;99452.84;4880454;28;25027;-65
2023/12/11 02:24:40;;;;;;;1.20;0.80;;;10.50;99.90;;;10.83;96.63;99455.19;4878761;28;24443;-64
2023/12/11 02:27:02;;;;;;;1.10;0.75;;;10.60;99.90;;;10.80;97.13;99448.47;4863422;28;24509;-65
2023/12/11 02:29:24;;;;;;;1.27;1.00;;;10.50;99.90;;;10.78;96.87;99463.44;4877914;28;24453;-64
2023/12/11 02:31:46;;;;;;;2.00;0.90;;;10.50;99.90;;;10.83;95.29;99466.47;4879933;28;24427;-65
2023/12/11 02:34:08;;;;;;;1.50;0.82;;;10.50;99.90;;;10.81;96.28;99476.22;4876406;28;24482;-65
2023/12/11 02:36:31;;;;;;;0.77;0.77;;;10.50;99.90;;;10.79;95.82;99472.94;4883028;28;25127;-65
2023/12/11 02:38:54;;;;;;;2.30;0.80;;;10.50;99.90;;;10.74;95.96;99469.91;4880231;28;24478;-64
2023/12/11 02:41:16;;;;;;;1.20;0.90;;;10.50;99.90;;;10.73;95.41;99478.66;4878478;28;24489;-65
2023/12/11 02:43:38;;;;;;;1.40;0.80;;;10.40;99.90;;;10.73;95.94;99477.88;4879927;28;24451;-64
2023/12/11 02:46:02;;;;;;;0.80;0.80;;;10.40;99.90;;;10.69;95.67;99479.13;4876402;28;24427;-65
2023/12/11 02:48:25;;;;;;;1.02;0.90;;;10.40;99.90;;;10.67;95.06;99484.44;4886128;28;24606;-65
2023/12/11 02:50:47;;;;;;;2.17;0.90;;;10.40;99.90;;;10.68;95.07;99486.09;4890942;28;24443;-65
2023/12/11 02:53:09;;;;;;;0.70;0.70;;;10.40;99.90;;;10.67;95.66;99488.84;4886015;28;24443;-65
2023/12/11 02:55:31;;;;;;;0.70;0.70;;;10.40;99.90;;;10.71;95.29;99490.22;4881870;28;24457;-66
2023/12/11 02:58:04;;;;;;;0.90;0.70;;;10.40;99.90;;;10.73;95.31;99493.53;4884798;28;24796;-66
2023/12/11 03:00:27;;;;;;;1.25;0.73;;;10.40;99.90;;;10.67;95.59;99487.06;4880020;28;24485;-66
2023/12/11 03:02:49;;;;;;;1.40;1.00;;;10.40;99.90;;;10.76;94.85;99483.63;4880358;28;24583;-65
2023/12/11 03:05:12;;;;;;;0.70;0.70;;;10.50;99.90;;;10.76;96.10;99490.63;4889357;28;24526;-65
2023/12/11 03:07:34;;;;;;;1.53;0.80;;;10.40;99.90;;;10.81;96.09;99486.66;4892824;28;24449;-66
2023/12/11 03:09:56;;;;;;;1.30;1.00;;;10.50;99.90;;;10.78;95.78;99479.09;4884632;28;24533;-65
2023/12/11 03:12:19;;;;;;;0.70;0.70;;;10.50;99.90;;;10.80;95.88;99465.91;4879891;28;24812;-66
2023/12/11 03:14:40;;;;;;;2.00;0.85;;;10.50;99.90;;;10.78;96.96;99467.81;4881028;28;24451;-65
2023/12/11 03:17:02;;;;;;;0.97;0.70;;;10.50;99.90;;;10.80;96.32;99464.13;4880153;28;24443;-66
2023/12/11 03:19:24;;;;;;;0.80;0.80;;;10.50;99.90;;;10.70;96.37;99454.66;4880824;28;24964;-65
2023/12/11 03:21:46;;;;;;;0.60;0.60;;;10.50;99.90;;;10.72;96.12;99461.38;4881678;28;24439;-66
2023/12/11 03:24:09;;;;;;;1.70;0.80;;;10.40;99.90;;;10.67;97.06;99463.56;4879603;28;25212;-65
2023/12/11 03:26:31;;;;;;;1.48;0.80;;;10.40;99.90;;;10.70;96.23;99455.50;4881331;28;24427;-65
2023/12/11 03:28:53;;;;;;;1.10;0.88;;;10.40;99.90;;;10.67;95.81;99452.31;4873803;28;24450;-65
2023/12/11 03:31:16;;;;;;;1.17;0.80;;;10.40;99.90;;;10.65;96.96;99452.47;4880367;28;24426;-67
2023/12/11 03:33:39;;;;;;;3.67;0.90;;;10.40;99.90;;;10.66;96.28;99440.25;4857882;28;24501;-63
2023/12/11 03:36:01;;;;;;;1.30;0.73;;;10.40;99.90;;;10.60;96.47;99440.81;4886062;28;24458;-63
2023/12/11 03:38:23;;;;;;;2.37;1.10;;;10.30;99.90;;;10.60;96.09;99433.00;4879519;28;24598;-64
2023/12/11 03:40:45;;;;;;;1.00;1.00;;;10.30;99.90;;;10.53;96.12;99430.09;4885543;28;24428;-65
2023/12/11 03:43:07;;;;;;;2.03;0.80;;;10.20;99.90;;;10.50;95.94;99432.97;4877438;28;24450;-65
2023/12/11 03:45:29;;;;;;;2.10;1.00;;;10.30;99.90;;;10.49;95.97;99440.94;4883341;28;24999;-65
2023/12/11 03:47:51;;;;;;;0.90;0.80;;;10.20;99.90;;;10.44;96.89;99443.97;4878363;28;24447;-65
2023/12/11 03:50:13;;;;;;;2.83;1.00;;;10.20;99.90;;;10.44;96.55;99438.75;4879275;28;24435;-66
2023/12/11 03:52:35;;;;;;;2.20;1.58;;;10.20;99.90;;;10.41;95.78;99441.66;4882612;28;25038;-65
2023/12/11 03:54:58;;;;;;;2.28;1.30;;;10.20;99.90;;;10.43;95.94;99442.34;4873605;28;25050;-66
2023/12/11 03:57:20;;;;;;;2.00;1.20;;;10.10;99.90;;;10.42;96.34;99432.84;4889706;28;24457;-65
2023/12/11 03:59:42;;;;;;;1.40;1.00;;;10.10;99.90;;;10.41;96.08;99439.06;4874083;28;24530;-65
2023/12/11 04:02:05;;;;;;;1.02;0.93;;;10.10;99.90;;;10.43;95.64;99429.31;4880883;28;24463;-66
2023/12/11 04:04:27;;;;;;;1.42;0.73;;;10.10;99.90;;;10.40;95.76;99423.53;4872942;28;24501;-65
2023/12/11 04:06:49;;;;;;;2.00;1.00;;;10.10;99.90;;;10.32;96.52;99429.44;4884361;28;24999;-65
2023/12/11 04:09:11;;;;;;;1.60;1.10;;;10.10;99.90;;;10.30;96.63;99433.97;4875704;28;24424;-65
2023/12/11 04:11:34;;;;;;;1.15;1.05;;;10.00;99.90;;;10.31;97.06;99435.59;4883455;28;24459;-65
2023/12/11 04:13:56;;;;;;;1.27;0.80;;;10.00;99.90;;;10.33;97.10;99433.69;4878109;28;24542;-67
2023/12/11 04:16:18;;;;;;;1.67;1.00;;;10.00;99.90;;;10.32;97.87;99444.25;4873617;28;24454;-67
2023/12/11 04:18:41;;;;;;;1.40;0.90;;;10.00;99.90;;;10.34;97.76;99450.97;4872416;28;24529;-65
2023/12/11 04:21:03;;;;;;;1.20;1.10;;;10.00;99.90;;;10.33;97.19;99451.13;4878873;28;24550;-65
2023/12/11 04:23:25;;;;;;;1.60;0.90;;;10.10;99.90;;;10.33;97.48;99454.53;4880943;28;24813;-65
2023/12/11 04:25:47;;;;;;;1.48;1.13;;;10.00;99.90;;;10.43;96.83;99442.34;4869661;28;24470;-66
2023/12/11 04:28:09;;;;;;;3.17;0.90;;;10.10;99.90;;;10.54;97.20;99443.97;4869242;28;24458;-65
2023/12/11 04:30:31;;;;;;;1.40;0.90;;;10.10;99.90;;;10.58;96.20;99451.41;4868219;28;24573;-66
2023/12/11 04:32:53;;;;;;;1.08;1.00;;;10.20;99.90;;;10.64;96.61;99453.44;4880685;28;24978;-66
2023/12/11 04:35:15;;;;;;;1.80;0.90;;;10.30;99.90;;;10.72;96.44;99450.13;4873675;28;24901;-63
2023/12/11 04:37:37;;;;;;;1.30;1.10;;;10.40;99.90;;;10.76;96.40;99454.09;4873841;28;24424;-66
2023/12/11 04:39:59;;;;;;;1.00;0.90;;;10.40;99.90;;;10.83;95.68;99447.38;4873716;28;24434;-66
2023/12/11 04:42:21;;;;;;;3.53;1.00;;;10.50;99.90;;;10.84;95.38;99451.59;4880057;28;24542;-66
2023/12/11 04:44:43;;;;;;;0.93;0.90;;;10.50;99.90;;;10.86;96.07;99447.09;4877789;28;24496;-65
2023/12/11 04:47:05;;;;;;;2.60;1.00;;;10.50;99.90;;;10.92;95.11;99444.72;4874767;28;24518;-66
2023/12/11 04:49:27;;;;;;;3.40;1.00;;;10.60;99.90;;;10.97;96.12;99448.72;4871668;28;24450;-66
2023/12/11 04:51:50;;;;;;;3.75;1.05;;;10.60;99.90;;;11.03;96.13;99442.94;4884474;28;24442;-65
2023/12/11 04:54:12;;;;;;;2.08;1.00;;;10.60;99.90;;;11.06;95.25;99440.03;4874056;28;24462;-65
2023/12/11 04:56:34;;;;;;;1.90;0.90;;;10.70;99.90;;;11.07;94.78;99424.25;4873405;28;25013;-65
2023/12/11 04:58:56;;;;;;;2.95;1.00;;;10.80;99.90;;;11.12;95.76;99419.41;4873691;28;24443;-65
2023/12/11 05:01:18;;;;;;;3.65;1.45;;;10.80;99.90;;;11.09;96.42;99414.47;4876810;28;24423;-65
2023/12/11 05:03:40;;;;;;;2.30;0.90;;;10.80;99.90;;;11.13;96.11;99415.84;4874928;28;24458;-65
2023/12/11 05:06:02;;;;;;;1.13;0.82;;;10.80;99.90;;;11.07;95.69;99402.53;4872164;28;24781;-65
2023/12/11 05:08:24;;;;;;;2.63;1.30;;;10.80;99.90;;;11.07;95.63;99405.13;4874128;28;24614;-65
2023/12/11 05:10:51;;;;;;;1.42;0.93;;;10.80;99.90;;;11.05;95.68;99401.84;4876785;28;24535;-65
2023/12/11 05:13:13;;;;;;;1.08;1.00;;;10.70;99.90;;;11.03;97.13;99409.81;4877671;28;24951;-63
2023/12/11 05:15:35;;;;;;;2.28;0.80;;;10.70;99.90;;;11.09;97.20;99416.25;4872647;28;25016;-66
2023/12/11 05:17:57;;;;;;;1.10;0.90;;;10.80;99.90;;;11.17;96.26;99413.75;4863591;28;24436;-65
2023/12/11 05:20:19;;;;;;;0.80;0.60;;;10.80;99.90;;;11.19;95.98;99401.38;4873144;28;24465;-65
2023/12/11 05:22:41;;;;;;;2.65;1.00;;;10.90;99.90;;;11.19;97.18;99401.38;4877648;28;24500;-65
2023/12/11 05:25:03;;;;;;;1.20;0.80;;;10.90;99.90;;;11.17;96.26;99377.19;4883007;28;24938;-66
2023/12/11 05:27:25;;;;;;;0.90;0.90;;;10.80;99.90;;;11.15;96.06;99373.91;4879286;28;24435;-66
2023/12/11 05:29:48;;;;;;;0.90;0.90;;;10.80;99.90;;;11.11;96.30;99375.16;4879278;28;24443;-65
2023/12/11 05:32:10;;;;;;;1.63;1.00;;;10.80;99.90;;;11.09;96.46;99369.28;4876860;28;25003;-66
2023/12/11 05:34:32;;;;;;;1.17;0.90;;;10.80;99.90;;;11.05;96.13;99373.13;4868518;28;25616;-65
2023/12/11 05:36:54;;;;;;;0.90;0.90;;;10.70;99.90;;;11.05;96.72;99380.97;4869335;28;24797;-65
2023/12/11 05:39:16;;;;;;;0.70;0.70;;;10.70;99.90;;;11.10;97.13;99384.78;4873074;28;24435;-65
2023/12/11 05:41:38;;;;;;;1.10;0.70;;;10.80;99.90;;;11.18;96.53;99384.09;4873805;28;24429;-66
2023/12/11 05:44:00;;;;;;;0.77;0.77;;;10.90;99.90;;;11.21;95.79;99383.78;4880865;28;25092;-66
2023/12/11 05:46:22;;;;;;;0.90;0.80;;;10.90;99.90;;;11.24;95.49;99388.72;4883214;28;24502;-65
2023/12/11 05:48:44;;;;;;;1.80;0.98;;;10.90;99.90;;;11.28;94.88;99390.06;4866297;28;24458;-66
2023/12/11 05:51:06;;;;;;;0.93;0.82;;;11.00;99.90;;;11.27;94.36;99388.41;4877157;28;25038;-65
2023/12/11 05:53:28;;;;;;;0.85;0.80;;;11.00;99.90;;;11.24;95.22;99381.72;4882134;28;25030;-66
2023/12/11 05:55:50;;;;;;;0.80;0.80;;;11.00;99.90;;;11.31;94.06;99368.88;4881143;28;24455;-66
2023/12/11 05:58:12;;;;;;;1.95;1.00;;;11.00;99.90;;;11.34;93.35;99363.38;4883964;28;24440;-65
2023/12/11 06:00:34;;;;;;;1.77;0.70;;;11.00;99.90;;;11.34;93.06;99379.88;4879102;28;24474;-66
2023/12/11 06:02:56;;;;;;;0.80;0.80;;;11.00;99.90;;;11.35;91.91;99380.69;4873487;28;24439;-65
2023/12/11 06:05:18;;;;;;;2.03;0.70;;;11.00;99.90;;;11.39;91.32;99382.84;4876129;28;24504;-66
2023/12/11 06:07:40;;;;;;;2.17;0.98;;;11.00;99.90;;;11.43;91.43;99386.00;4882276;28;24442;-65
2023/12/11 06:10:03;;;;;;;1.42;0.90;;;11.10;99.90;;;11.49;90.59;99380.19;4870981;28;24474;-65
2023/12/11 06:12:25;;;;;;;2.25;0.90;;;11.10;99.90;;;11.54;89.80;99384.00;4878287;28;24438;-65
2023/12/11 06:14:47;;;;;;;1.40;0.70;;;11.10;99.90;;;11.70;87.72;99380.78;4880609;28;24446;-65
2023/12/11 06:17:10;;;;;;;2.30;1.20;;;11.30;99.90;;;11.74;87.99;99379.53;4884957;28;24422;-66
2023/12/11 06:19:32;;;;;;;2.83;0.80;;;11.40;99.90;;;11.76;87.09;99364.53;4866636;28;24853;-65
2023/12/11 06:21:54;;;;;;;2.97;1.00;;;11.40;99.90;;;11.76;87.09;99361.91;4869923;28;24469;-65
2023/12/11 06:24:16;;;;;;;1.52;1.00;;;11.40;99.90;;;11.74;87.38;99363.03;4866944;28;25209;-67
2023/12/11 06:26:42;;;;;;;2.70;0.90;;;11.40;99.90;;;11.70;87.28;99362.50;4868729;28;24542;-66
2023/12/11 06:29:04;;;;;;;1.73;0.90;;;11.40;99.90;;;11.71;87.79;99368.56;4868904;28;24443;-65
2023/12/11 06:31:27;;;;;;;1.50;0.80;;;11.40;99.90;;;11.82;86.90;99366.53;4868069;28;25066;-65
2023/12/11 06:33:48;;;;;;;2.63;1.00;;;11.50;99.90;;;11.84;86.44;99356.75;4868435;28;25455;-66
2023/12/11 06:36:10;;;;;;;1.80;0.90;;;11.50;99.90;;;11.79;86.72;99360.78;4864188;28;24544;-65
2023/12/11 06:38:33;;;;;;;1.97;1.10;;;11.50;99.90;;;11.81;86.56;99370.13;4880965;28;25075;-65
2023/12/11 06:40:55;;;;;;;1.80;0.80;;;11.50;99.90;;;11.81;86.03;99367.53;4866296;28;24535;-64
2023/12/11 06:43:17;;;;;;;1.02;0.82;;;11.40;99.90;;;11.83;86.10;99375.19;4867257;28;24464;-64
2023/12/11 06:45:39;;;;;;;1.20;0.70;;;11.50;99.90;;;11.84;86.22;99367.22;4868184;28;24451;-65
2023/12/11 06:48:01;;;;;;;1.67;0.90;;;11.50;99.90;;;11.83;87.20;99364.75;4867889;28;24443;-65
2023/12/11 06:50:23;;;;;;;3.00;0.93;;;11.50;99.90;;;11.84;86.91;99361.19;4866240;28;24455;-65
2023/12/11 06:52:46;;;;;;;1.10;1.00;;;11.50;99.90;;;11.86;86.44;99348.78;4869069;28;24454;-65
2023/12/11 06:55:08;;;;;;;2.03;1.00;;;11.50;99.90;;;11.89;87.01;99338.84;4853474;28;24833;-65
2023/12/11 06:57:30;;;;;;;3.55;1.20;;;11.50;99.90;;;11.89;86.35;99330.19;4872203;28;24489;-65
2023/12/11 06:59:52;;;;;;;2.90;0.90;;;11.50;99.90;;;11.84;86.30;99335.03;4877998;28;24434;-65
2023/12/11 07:02:14;;;;;;;1.60;1.00;;;11.50;99.90;;;11.80;86.55;99342.34;4875544;28;24481;-64
2023/12/11 07:04:37;;;;;;;1.63;0.90;;;11.50;99.90;;;11.81;86.08;99343.16;4872763;28;24445;-64
2023/12/11 07:06:59;;;;;;;2.78;1.20;;;11.50;99.90;;;11.79;86.06;99329.44;4872522;28;25009;-65
2023/12/11 07:09:21;;;;;;;3.30;0.90;;;11.40;99.90;;;11.84;85.81;99337.66;4879756;28;24438;-65
2023/12/11 07:11:43;;;;;;;0.85;0.80;;;11.50;99.90;;;11.86;85.98;99338.34;4876449;28;24541;-65
2023/12/11 07:14:05;;;;;;;3.57;1.10;;;11.50;99.90;;;11.85;85.16;99347.97;4874091;28;25078;-65
2023/12/11 07:16:27;;;;;;;1.02;0.93;;;11.50;99.90;;;11.89;85.32;99353.69;4873408;28;24521;-67
2023/12/11 07:18:49;;;;;;;1.83;1.02;;;11.60;99.90;;;11.94;84.87;99352.28;4873735;28;25044;-65
2023/12/11 07:21:12;;;;;;;2.50;1.00;;;11.60;99.90;;;11.91;85.03;99356.97;4879137;28;25032;-65
2023/12/11 07:23:34;;;;;;;1.77;1.00;;;11.60;99.90;;;11.92;84.92;99340.34;4863050;28;24431;-65
2023/12/11 07:25:56;;;;;;;3.70;2.00;;;11.60;99.90;;;11.92;84.21;99348.19;4876389;28;24530;-65
2023/12/11 07:28:18;;;;;;;1.55;1.00;;;11.60;99.90;;;11.92;84.98;99367.31;4872952;28;24519;-66
2023/12/11 07:30:40;;;;;;;1.80;1.20;;;11.60;99.90;;;11.90;85.13;99369.25;4880772;28;24447;-65
2023/12/11 07:33:02;;;;;;;2.78;1.10;;;11.60;99.90;;;11.89;85.23;99361.53;4874844;28;24439;-65
2023/12/11 07:35:27;;;;;;;2.10;1.05;;;11.50;99.90;;;11.87;85.06;99366.09;4876395;28;24458;-66
2023/12/11 07:37:49;;;;;;;3.25;1.15;;;11.50;99.90;;;11.85;84.89;99362.81;4873602;28;24435;-65
2023/12/11 07:40:11;;;;;;;2.50;1.10;;;11.50;99.90;;;11.81;85.44;99370.13;4883483;28;24427;-65
2023/12/11 07:42:33;;;;;;;1.70;1.20;;;11.50;99.90;;;11.86;85.03;99367.88;4849219;28;24434;-66
2023/12/11 07:44:55;;;;;;;1.83;1.23;;;11.50;99.90;;;11.92;83.98;99369.91;4857575;28;24462;-65
2023/12/11 07:47:17;;;;;;;3.85;1.58;;;11.60;99.90;;;11.95;83.44;99377.44;4871802;28;24534;-65
2023/12/11 07:49:39;;;;;;;3.67;1.17;;;11.60;99.90;;;11.95;83.41;99371.38;4882298;28;25198;-63
2023/12/11 07:52:02;;;;;;;1.83;1.05;;;11.60;99.90;;;11.97;84.26;99377.31;4875681;28;24438;-65
2023/12/11 07:54:27;;;;;;;3.60;1.40;;;11.60;99.90;;;12.04;83.82;99389.63;4875588;28;24550;-65
2023/12/11 07:56:49;;;;;;;1.70;1.15;;;11.70;99.90;;;12.10;83.31;99385.59;4874891;28;24459;-65
2023/12/11 07:59:11;;;;;;;3.08;1.10;;;11.70;99.90;;;12.13;83.12;99395.75;4883309;28;24975;-66
2023/12/11 08:01:33;;;;;;;2.53;1.10;;;11.70;99.90;;;12.14;82.86;99389.53;4874725;28;24485;-65
2023/12/11 08:03:57;;;;;;;2.20;0.90;;;11.80;99.90;;;12.14;82.92;99382.53;4876339;28;24836;-65
2023/12/11 08:06:19;;;;;;;2.80;1.00;;;11.80;99.90;;;12.19;82.46;99388.13;4877283;28;24450;-65
2023/12/11 08:08:44;;;;;;;2.08;1.10;;;11.80;99.90;;;12.20;82.69;99389.75;4887078;28;25023;-65
2023/12/11 08:11:22;;;;;;;1.90;1.00;;;11.80;99.90;;;12.27;82.45;99389.97;4878082;28;25091;-65
2023/12/11 08:13:44;;;;;;;3.60;1.30;;;11.90;99.90;;;12.24;81.84;99396.38;4863276;28;25023;-66
2023/12/11 08:16:06;;;;;;;2.08;1.30;;;11.90;99.90;;;12.25;82.05;99392.75;4868074;28;24562;-66
2023/12/11 08:18:28;;;;;;;3.05;1.10;;;11.90;99.90;;;12.26;82.37;99401.44;4871291;28;24516;-65
2023/12/11 08:20:50;;;;;;;2.20;0.95;;;11.90;99.90;;;12.27;82.30;99405.69;4872911;28;24480;-65
2023/12/11 08:23:14;;;;;;;3.60;1.20;;;11.90;99.90;;;12.25;82.58;99410.22;4879641;28;25049;-64
2023/12/11 08:25:37;;;;;;;2.60;1.00;;;11.90;99.90;;;12.30;83.12;99410.63;4874330;28;24438;-65
2023/12/11 08:27:59;;;;;;;3.42;1.20;;;11.90;99.90;;;12.36;83.00;99410.00;4872131;28;24543;-65
2023/12/11 08:30:21;;;;;;;3.33;1.30;;;12.00;99.90;;;12.42;82.65;99412.84;4873132;28;24443;-64
2023/12/11 08:32:43;;;;;;;2.63;1.40;;;12.00;99.90;;;12.53;81.64;99410.97;4875693;28;25036;-65
2023/12/11 08:35:05;;;;;;;3.05;0.95;;;12.10;99.90;;;12.58;81.82;99412.16;4874196;28;24496;-64
2023/12/11 08:37:27;;;;;;;3.40;1.20;;;12.20;99.90;;;12.59;81.43;99412.97;4867123;28;24939;-65
2023/12/11 08:39:50;;;;;;;3.72;1.42;;;12.20;99.90;;;12.61;81.42;99417.06;4869727;28;25067;-66
2023/12/11 08:42:12;;;;;;;5.95;1.30;;;12.20;99.90;;;12.65;80.86;99413.19;4874279;28;25002;-65
2023/12/11 08:44:34;;;;;;;1.95;1.15;;;12.30;99.90;;;12.68;80.92;99414.66;4872369;28;25098;-65
2023/12/11 08:46:55;;;;;;;1.98;1.20;;;12.30;99.90;;;12.69;81.18;99411.09;4870705;28;25402;-65
2023/12/11 08:49:17;;;;;;;2.33;1.20;;;12.30;99.90;;;12.70;81.64;99417.94;4874327;28;24509;-65
2023/12/11 08:51:41;;;;;;;2.95;1.38;;;12.30;99.90;;;12.72;80.70;99416.84;4866816;28;24450;-65
2023/12/11 08:54:04;;;;;;;3.20;1.30;;;12.30;99.90;;;12.76;80.62;99425.19;4873465;28;24537;-65
2023/12/11 08:56:25;;;;;;;6.38;1.50;;;12.30;99.90;;;12.74;80.14;99425.34;4871316;28;24700;-65
2023/12/11 08:58:51;;;;;;;1.98;1.77;;;12.30;99.90;;;12.74;80.97;99422.72;4871920;28;24533;-65
2023/12/11 09:01:13;;;;;;;3.80;1.50;;;12.30;99.90;;;12.74;81.07;99424.53;4874953;28;24455;-65
2023/12/11 09:03:35;;;;;;;4.40;1.08;;;12.30;99.90;;;12.78;79.64;99431.91;4867771;28;24550;-65
2023/12/11 09:05:57;;;;;;;4.88;1.45;;;12.40;99.90;;;12.74;79.76;99420.13;4878107;28;24542;-64
2023/12/11 09:08:19;;;;;;;2.00;1.08;;;12.40;99.90;;;12.73;80.37;99425.50;4871567;28;25047;-65
2023/12/11 09:10:41;;;;;;;6.18;1.20;;;12.40;99.90;;;12.73;80.00;99434.19;4872354;28;25130;-65
2023/12/11 09:13:03;;;;;;;1.75;1.05;;;12.30;99.90;;;12.77;80.37;99435.53;4874447;28;25186;-65
2023/12/11 09:15:25;;;;;;;4.07;1.10;;;12.40;99.90;;;12.79;80.45;99432.75;4874952;28;24526;-66
2023/12/11 09:17:47;;;;;;;2.30;1.20;;;12.40;99.90;;;12.77;80.94;99438.16;4871146;28;24441;-64
2023/12/11 09:20:10;;;;;;;3.28;1.60;;;12.30;99.90;;;12.84;81.27;99440.97;4879337;28;25003;-64
2023/12/11 09:22:36;;;;;;;3.20;1.20;;;12.40;99.90;;;12.95;80.32;99438.91;4867445;28;24521;-65
2023/12/11 09:24:58;;;;;;;4.35;1.30;;;12.50;99.90;;;13.02;80.32;99439.13;4862004;28;24435;-64
2023/12/11 09:27:20;;;;;;;4.30;1.50;;;12.50;99.90;;;13.06;79.63;99445.72;4869827;28;24801;-65
2023/12/11 09:29:42;;;;;;;1.30;1.20;;;12.60;99.90;;;13.10;79.22;99452.28;4872820;28;24446;-66
2023/12/11 09:32:04;;;;;;;2.55;1.25;;;12.60;99.90;;;13.13;79.17;99447.56;4874772;28;24552;-66
2023/12/11 09:34:26;;;;;;;2.67;1.10;;;12.60;99.90;;;13.16;79.13;99457.72;4874988;28;24533;-65
2023/12/11 09:36:48;;;;;;;6.80;2.00;;;12.70;99.90;;;13.15;78.83;99455.25;4874844;28;24478;-67
2023/12/11 09:39:10;;;;;;;3.13;1.30;;;12.70;99.90;;;13.18;78.26;99444.50;4871760;28;24432;-65
2023/12/11 09:41:34;;;;;;;3.15;1.38;;;12.80;99.90;;;13.17;78.36;99458.56;4871920;28;24489;-64
2023/12/11 09:43:57;;;;;;;2.55;1.10;;;12.70;99.90;;;13.17;77.03;99450.69;4873216;28;24884;-64
2023/12/11 09:46:20;;;;;;;5.03;1.42;;;12.80;99.90;;;13.29;77.18;99457.31;4873041;28;24511;-67
2023/12/11 09:48:42;;;;;;;4.38;1.60;;;12.80;99.90;;;13.42;76.27;99452.47;4853457;28;24888;-65
2023/12/11 09:51:05;;;;;;;5.90;1.40;;;12.90;99.90;;;13.67;75.12;99458.66;4854318;28;24451;-65
2023/12/11 09:53:30;;;;;;;2.72;1.50;;;13.00;99.90;;;13.74;74.40;99444.72;4873158;28;24438;-66
2023/12/11 09:55:52;;;;;;;4.00;1.50;;;13.30;99.90;;;13.72;74.24;99443.25;4860839;28;24466;-66
2023/12/11 09:58:15;;;;;;;5.35;1.40;;;13.30;99.90;;;13.83;74.49;99445.59;4871404;28;24887;-64
2023/12/11 10:00:37;;;;;;;3.72;1.42;;;13.30;99.90;;;13.98;73.35;99452.69;4855193;28;24553;-65